Airfield :
LOGIN :

Register | Disclaimer

   EN    FR    IT 

 










Legend :    VFR   Marginal VFR   IFR   Intensive IFR   Very Intensive IFR
Visi :
Ceiling :
>= 8 km
>= 3000ft
5 to 8 km
1000 to 3000 ft
1500m to 5 km
500 to 1000 ft
800 to 1500m
200 to 500 ft
< 800m
< 200 ft
Symbols :   Thunderstorms  Fog  Heavy snow  Heavy precipitations  Wind > 20 kt
SIGMETs :     Misc.  Thunderstorms  Icing  Turbulence  Mountain Waves  Volcanic Ashes






- Airport Elevation : 681 ft
- IATA code : LBA


EGNM - Leeds Bradford

CURRENT METAR :
  • 081720Z 36012KT CAVOK 17/13 Q1024

EXPIRED METARs :
  • 081650Z 36012KT CAVOK 19/12 Q1024
  • 081620Z 36012KT CAVOK 19/12 Q1024
  • 081550Z 36011KT CAVOK 20/11 Q1024
  • 081520Z 36012KT CAVOK 21/12 Q1024
  • 081450Z 36011KT CAVOK 21/12 Q1024

TAF TAF EGNM
Valid from the 08 at 18:00 until the 09 at 18:00 UTC


081655Z 0818/0918 02008KT 9999 FEW045
BECMG 0822/0901 BKN008
PROB30
TEMPO 0900/0906 6000 BKN004
BECMG 0909/0912 SCT020
ATIS : +44 113 250 9696 (x2489)



MET'MAP, your aeronautical weather chart ! - Copyright ORBIFLY December 2007 - Disclaimer

ORBIFLY MET'MAP TEAM :

Programming & Development : Alexandra Zaïnal
Concept & original design : Baudouin d'Aumeries
Assistance for programming : Marc-Olivier Méhu
Technical & hardware support : Manuel Goepfert

Contact : metmap@orbifly.com




SOURCES & CREDITS :

   NOAA